Time;durP1;ratioP1;P1;durP2;ratioP2;P2;SDS_P1;SDS_P2;PMS_P1;PMS_P2;Temp;Humidity;BMP_temperature;BMP_pressure;BME280_temperature;BME280_humidity;BME280_pressure;Samples;Min_cycle;Max_cycle;Signal;HPM_P1;HPM_P2
2022/11/21 00:00:39;;;;;;;28.73;15.68;;;;;;;;;;5095116;28;20024;-78
2022/11/21 00:03:04;;;;;;;37.03;16.85;;;;;;;;;;5060332;28;20040;-80
2022/11/21 00:05:30;;;;;;;34.22;17.88;;;;;;;;;;5076985;28;20027;-79
2022/11/21 00:07:56;;;;;;;35.30;16.80;;;;;;;;;;5076704;28;20042;-78
2022/11/21 00:10:22;;;;;;;32.67;16.00;;;;;;;;;;5077056;28;20055;-80
2022/11/21 00:12:52;;;;;;;32.40;15.05;;;;;;;;;;5076824;28;20024;-80
2022/11/21 00:15:18;;;;;;;;;;;;;;;;;;5095212;28;20058;-80
2022/11/21 00:17:43;;;;;;;32.35;15.02;;;;;;;;;;5094742;28;19911;-80
2022/11/21 00:20:09;;;;;;;29.63;14.77;;;;;;;;;;5094624;28;20055;-80
2022/11/21 00:22:34;;;;;;;29.98;15.02;;;;;;;;;;5094434;28;20028;-80
2022/11/21 00:25:00;;;;;;;26.48;12.27;;;;;;;;;;5094214;28;20028;-78
2022/11/21 00:27:25;;;;;;;24.85;10.23;;;;;;;;;;5094790;28;20063;-78
2022/11/21 00:29:51;;;;;;;15.30;9.30;;;;;;;;;;5095236;28;20024;-80
2022/11/21 00:32:16;;;;;;;15.82;9.43;;;;;;;;;;5076674;28;20118;-79
2022/11/21 00:34:41;;;;;;;25.83;8.85;;;;;;;;;;5094542;28;20066;-80
2022/11/21 00:37:07;;;;;;;12.90;7.35;;;;;;;;;;5094210;28;20028;-80
2022/11/21 00:39:32;;;;;;;12.05;7.15;;;;;;;;;;5076355;28;20032;-79
2022/11/21 00:41:58;;;;;;;12.32;7.22;;;;;;;;;;5094436;28;20016;-79
2022/11/21 00:44:23;;;;;;;10.40;6.93;;;;;;;;;;5076638;28;20023;-79
2022/11/21 00:46:49;;;;;;;12.35;7.13;;;;;;;;;;5059508;28;20680;-79
2022/11/21 00:49:14;;;;;;;10.57;7.50;;;;;;;;;;5094557;28;20036;-79
2022/11/21 00:51:39;;;;;;;12.07;7.25;;;;;;;;;;5076913;28;20058;-79
2022/11/21 00:54:05;;;;;;;9.80;6.65;;;;;;;;;;5090289;28;20418;-78
2022/11/21 00:56:30;;;;;;;10.57;7.13;;;;;;;;;;5094171;28;20024;-79
2022/11/21 00:58:56;;;;;;;9.95;7.35;;;;;;;;;;5076496;28;20058;-79
2022/11/21 01:01:21;;;;;;;11.40;7.63;;;;;;;;;;5094180;28;20111;-79
2022/11/21 01:03:47;;;;;;;13.07;7.35;;;;;;;;;;5076207;28;20056;-79
2022/11/21 01:06:13;;;;;;;7.90;5.70;;;;;;;;;;5093813;28;20024;-79
2022/11/21 01:08:40;;;;;;;7.85;5.93;;;;;;;;;;5076255;28;20040;-79
2022/11/21 01:11:15;;;;;;;6.72;5.32;;;;;;;;;;5059609;28;20031;-79
2022/11/21 01:13:40;;;;;;;8.18;5.50;;;;;;;;;;5059597;28;20028;-80
2022/11/21 01:16:08;;;;;;;5.80;4.80;;;;;;;;;;5075956;28;20510;-80
2022/11/21 01:18:34;;;;;;;6.95;5.32;;;;;;;;;;5076109;28;20152;-79
2022/11/21 01:21:20;;;;;;;8.05;5.50;;;;;;;;;;5075938;28;20475;-81
2022/11/21 01:23:46;;;;;;;9.98;5.85;;;;;;;;;;5078353;28;20066;-81
2022/11/21 01:26:17;;;;;;;7.80;5.85;;;;;;;;;;5075888;28;20113;-80
2022/11/21 01:28:42;;;;;;;12.35;7.50;;;;;;;;;;5059281;28;20125;-80
2022/11/21 01:31:10;;;;;;;11.32;6.97;;;;;;;;;;5076085;28;20353;-80
2022/11/21 01:33:35;;;;;;;10.70;6.72;;;;;;;;;;5059039;28;20028;-79
2022/11/21 01:36:14;;;;;;;7.60;5.65;;;;;;;;;;5042776;28;20388;-80
2022/11/21 01:38:43;;;;;;;7.82;5.45;;;;;;;;;;5064482;28;20078;-80
2022/11/21 01:41:10;;;;;;;8.07;5.05;;;;;;;;;;5063484;28;20024;-81
2022/11/21 01:43:35;;;;;;;7.53;5.57;;;;;;;;;;5063114;28;20024;-80
2022/11/21 01:46:06;;;;;;;7.95;5.57;;;;;;;;;;5062763;28;20524;-80
2022/11/21 01:48:36;;;;;;;12.45;8.35;;;;;;;;;;5079379;28;20135;-80
2022/11/21 01:51:12;;;;;;;15.05;8.65;;;;;;;;;;5079826;28;20028;-80
2022/11/21 01:53:38;;;;;;;12.77;7.95;;;;;;;;;;5063980;28;20028;-80
2022/11/21 01:56:03;;;;;;;14.18;8.27;;;;;;;;;;5062810;28;20449;-80
2022/11/21 01:58:28;;;;;;;10.70;7.43;;;;;;;;;;5097580;28;20998;-80
2022/11/21 02:00:54;;;;;;;11.85;7.28;;;;;;;;;;5079410;28;20067;-80
2022/11/21 02:03:20;;;;;;;12.75;7.68;;;;;;;;;;5079121;28;20032;-81
2022/11/21 02:05:45;;;;;;;16.23;7.75;;;;;;;;;;5079179;28;20442;-80
2022/11/21 02:08:17;;;;;;;16.33;8.00;;;;;;;;;;5062513;28;20036;-80
2022/11/21 02:10:48;;;;;;;21.83;7.05;;;;;;;;;;5046278;28;20036;-80
2022/11/21 02:13:13;;;;;;;12.70;6.40;;;;;;;;;;5079572;28;20028;-80
2022/11/21 02:15:38;;;;;;;9.35;5.97;;;;;;;;;;5062557;28;20126;-79
2022/11/21 02:18:07;;;;;;;9.05;5.60;;;;;;;;;;5083736;28;20039;-80
2022/11/21 02:20:33;;;;;;;7.43;5.30;;;;;;;;;;5078979;28;20024;-80
2022/11/21 02:22:58;;;;;;;7.93;5.53;;;;;;;;;;5062569;28;20085;-80
2022/11/21 02:25:31;;;;;;;8.98;5.32;;;;;;;;;;5079094;28;20173;-80
2022/11/21 02:27:58;;;;;;;10.23;7.47;;;;;;;;;;5045882;28;20044;-79
2022/11/21 02:30:24;;;;;;;12.25;8.38;;;;;;;;;;5096915;28;20473;-80
2022/11/21 02:32:49;;;;;;;10.13;7.65;;;;;;;;;;5062173;28;20062;-80
2022/11/21 02:35:16;;;;;;;16.25;8.02;;;;;;;;;;5079168;28;20032;-80
2022/11/21 02:37:41;;;;;;;10.68;7.03;;;;;;;;;;5106908;28;20024;-80
2022/11/21 02:40:12;;;;;;;10.57;7.20;;;;;;;;;;5062165;28;20035;-80
2022/11/21 02:42:42;;;;;;;10.05;5.38;;;;;;;;;;5079297;28;20077;-80
2022/11/21 02:45:14;;;;;;;9.32;4.78;;;;;;;;;;5062414;28;20040;-80
2022/11/21 02:47:40;;;;;;;6.60;4.78;;;;;;;;;;5077973;28;20044;-78
2022/11/21 02:50:14;;;;;;;4.60;3.60;;;;;;;;;;5062284;28;20024;-80
2022/11/21 02:52:39;;;;;;;3.75;3.42;;;;;;;;;;5062433;28;20372;-80
2022/11/21 02:55:05;;;;;;;4.60;3.60;;;;;;;;;;5078430;28;20020;-80
2022/11/21 02:57:31;;;;;;;3.85;3.30;;;;;;;;;;5078583;28;20392;-79
2022/11/21 02:59:56;;;;;;;7.43;2.92;;;;;;;;;;5078521;28;20063;-80
2022/11/21 03:02:21;;;;;;;5.07;3.60;;;;;;;;;;5096211;28;20032;-80
2022/11/21 03:04:47;;;;;;;3.53;3.05;;;;;;;;;;5078446;28;20031;-80
2022/11/21 03:07:12;;;;;;;5.20;3.90;;;;;;;;;;5061323;28;20399;-80
2022/11/21 03:09:38;;;;;;;5.32;3.90;;;;;;;;;;5061167;28;20470;-81
2022/11/21 03:12:08;;;;;;;4.45;3.20;;;;;;;;;;5078045;28;20020;-79
2022/11/21 03:14:34;;;;;;;3.75;2.50;;;;;;;;;;5078127;28;20035;-79
2022/11/21 03:17:00;;;;;;;4.90;2.33;;;;;;;;;;5077732;28;20398;-81
2022/11/21 03:19:25;;;;;;;2.47;2.00;;;;;;;;;;5061410;28;20026;-80
2022/11/21 03:21:51;;;;;;;2.45;1.50;;;;;;;;;;5096114;28;20103;-80
2022/11/21 03:24:16;;;;;;;5.38;1.15;;;;;;;;;;5077781;28;20411;-80
2022/11/21 03:26:41;;;;;;;2.05;1.00;;;;;;;;;;5095724;28;20027;-80
2022/11/21 03:29:07;;;;;;;3.13;1.35;;;;;;;;;;5077642;28;20031;-80
2022/11/21 03:31:32;;;;;;;2.45;1.00;;;;;;;;;;5095436;28;20099;-79
2022/11/21 03:33:58;;;;;;;3.53;1.00;;;;;;;;;;5077883;28;20036;-79
2022/11/21 03:36:23;;;;;;;1.25;0.88;;;;;;;;;;5095842;28;20476;-80
2022/11/21 03:38:48;;;;;;;0.80;0.80;;;;;;;;;;5077820;28;20381;-80
2022/11/21 03:41:29;;;;;;;0.75;0.70;;;;;;;;;;5095820;28;20100;-79
2022/11/21 03:43:56;;;;;;;1.52;0.80;;;;;;;;;;5079432;28;20020;-81
2022/11/21 03:46:21;;;;;;;1.17;0.90;;;;;;;;;;5061218;28;20048;-80
2022/11/21 03:48:47;;;;;;;1.02;0.90;;;;;;;;;;5077369;28;20131;-80
2022/11/21 03:51:12;;;;;;;1.05;0.98;;;;;;;;;;5077396;28;20032;-79
2022/11/21 03:53:38;;;;;;;1.00;1.00;;;;;;;;;;5077379;28;20032;-80
2022/11/21 03:56:03;;;;;;;1.73;1.40;;;;;;;;;;5060803;28;20040;-79
2022/11/21 03:58:30;;;;;;;1.77;1.50;;;;;;;;;;5062575;28;20028;-79
2022/11/21 04:00:55;;;;;;;1.92;1.77;;;;;;;;;;5101607;28;20137;-80
2022/11/21 04:03:21;;;;;;;2.92;1.95;;;;;;;;;;5061820;28;20465;-80
2022/11/21 04:05:46;;;;;;;2.80;1.58;;;;;;;;;;5043647;28;20409;-80
2022/11/21 04:08:12;;;;;;;3.50;1.60;;;;;;;;;;5060135;28;20032;-79
2022/11/21 04:10:37;;;;;;;1.80;1.70;;;;;;;;;;5094998;28;20031;-79
2022/11/21 04:13:02;;;;;;;2.75;1.70;;;;;;;;;;5095126;28;20036;-80
2022/11/21 04:15:28;;;;;;;1.88;1.70;;;;;;;;;;5095026;28;20067;-81
2022/11/21 04:17:53;;;;;;;4.10;1.50;;;;;;;;;;5076828;28;20066;-79
2022/11/21 04:20:19;;;;;;;2.03;1.80;;;;;;;;;;5076632;28;20054;-80
2022/11/21 04:22:44;;;;;;;6.97;1.73;;;;;;;;;;5060547;28;20081;-81
2022/11/21 04:25:10;;;;;;;1.90;1.80;;;;;;;;;;5076601;28;20470;-80
2022/11/21 04:27:35;;;;;;;2.22;1.52;;;;;;;;;;5094450;28;20085;-79
2022/11/21 04:30:01;;;;;;;2.22;1.55;;;;;;;;;;5094636;28;20357;-79
2022/11/21 04:32:26;;;;;;;1.67;1.50;;;;;;;;;;5094756;28;20020;-80
2022/11/21 04:34:52;;;;;;;1.55;1.40;;;;;;;;;;5094481;28;20048;-81
2022/11/21 04:37:17;;;;;;;1.40;1.17;;;;;;;;;;5094504;28;20102;-80
2022/11/21 04:39:42;;;;;;;1.50;1.30;;;;;;;;;;5094528;28;20024;-80
2022/11/21 04:42:08;;;;;;;1.48;1.30;;;;;;;;;;5059458;28;20718;-80
2022/11/21 04:44:33;;;;;;;2.95;1.70;;;;;;;;;;5081983;28;20049;-80
2022/11/21 04:46:59;;;;;;;2.00;1.70;;;;;;;;;;5069995;28;20032;-80
2022/11/21 04:49:24;;;;;;;2.47;1.70;;;;;;;;;;5076374;28;20036;-79
2022/11/21 04:51:50;;;;;;;3.17;2.20;;;;;;;;;;5094403;28;20032;-79
2022/11/21 04:54:15;;;;;;;3.25;2.90;;;;;;;;;;5094174;28;20024;-80
2022/11/21 04:56:41;;;;;;;2.97;2.65;;;;;;;;;;5094044;28;20514;-80
2022/11/21 04:59:06;;;;;;;4.47;2.92;;;;;;;;;;5076131;28;20345;-79
2022/11/21 05:01:32;;;;;;;3.42;2.78;;;;;;;;;;5076346;28;20032;-78
2022/11/21 05:03:57;;;;;;;2.53;2.08;;;;;;;;;;5094165;28;20457;-78
2022/11/21 05:06:22;;;;;;;2.88;2.08;;;;;;;;;;5064422;28;20079;-79
2022/11/21 05:08:48;;;;;;;3.70;2.60;;;;;;;;;;5076115;28;20130;-79
2022/11/21 05:13:57;;;;;;;4.53;2.38;;;;;;;;;;5094154;28;20031;-80
2022/11/21 05:16:23;;;;;;;3.45;2.88;;;;;;;;;;5094340;28;20107;-79
2022/11/21 05:18:48;;;;;;;2.60;2.28;;;;;;;;;;5076234;28;20070;-80
2022/11/21 05:21:13;;;;;;;3.65;2.40;;;;;;;;;;5093990;28;20016;-80
2022/11/21 05:23:39;;;;;;;3.80;2.60;;;;;;;;;;5075856;28;20085;-80
2022/11/21 05:26:04;;;;;;;4.40;2.30;;;;;;;;;;5076000;28;20081;-78
2022/11/21 05:28:30;;;;;;;3.28;2.60;;;;;;;;;;5101435;28;20032;-81
2022/11/21 05:30:55;;;;;;;2.92;2.10;;;;;;;;;;5059349;28;20020;-80
2022/11/21 05:33:21;;;;;;;4.00;2.97;;;;;;;;;;5075675;28;20119;-80
2022/11/21 05:35:46;;;;;;;6.70;2.92;;;;;;;;;;5093862;28;20397;-80
2022/11/21 05:38:12;;;;;;;4.88;2.83;;;;;;;;;;5058234;28;20035;-80
2022/11/21 05:40:37;;;;;;;6.18;3.53;;;;;;;;;;5090859;28;20028;-79
2022/11/21 05:45:50;;;;;;;9.20;5.30;;;;;;;;;;5097624;28;20108;-80
2022/11/21 05:48:16;;;;;;;4.47;3.67;;;;;;;;;;5102383;28;20045;-80
2022/11/21 05:50:41;;;;;;;3.47;2.53;;;;;;;;;;5114242;28;20036;-79
2022/11/21 05:53:07;;;;;;;4.25;3.60;;;;;;;;;;5062918;28;20027;-81
2022/11/21 05:55:33;;;;;;;4.63;2.42;;;;;;;;;;5074213;28;20032;-79
2022/11/21 05:57:59;;;;;;;2.30;2.08;;;;;;;;;;5069195;28;20679;-79
2022/11/21 06:00:35;;;;;;;3.38;2.00;;;;;;;;;;5090426;28;20025;-80
2022/11/21 06:05:45;;;;;;;4.22;2.97;;;;;;;;;;5065796;28;20393;-79
2022/11/21 06:08:13;;;;;;;3.90;2.78;;;;;;;;;;5086775;28;20043;-80
2022/11/21 06:10:39;;;;;;;5.03;2.85;;;;;;;;;;5073081;28;20044;-80
2022/11/21 06:13:20;;;;;;;4.00;2.42;;;;;;;;;;5050762;28;20084;-78
2022/11/21 06:16:05;;;;;;;6.65;3.20;;;;;;;;;;5069495;28;20035;-80
2022/11/21 06:18:32;;;;;;;5.53;2.70;;;;;;;;;;5072628;28;20024;-78
2022/11/21 06:21:28;;;;;;;4.68;2.55;;;;;;;;;;5102712;28;20059;-78
2022/11/21 06:23:58;;;;;;;2.60;2.10;;;;;;;;;;5068987;28;20368;-80
2022/11/21 06:26:24;;;;;;;5.97;2.83;;;;;;;;;;5090573;28;20028;-79
2022/11/21 06:28:50;;;;;;;2.92;2.33;;;;;;;;;;5057568;28;20043;-79
2022/11/21 06:31:24;;;;;;;3.65;2.30;;;;;;;;;;5072229;28;20096;-79
2022/11/21 06:34:25;;;;;;;3.75;2.50;;;;;;;;;;5077149;28;20019;-80
2022/11/21 06:36:51;;;;;;;2.70;1.70;;;;;;;;;;5045258;28;20133;-80
2022/11/21 06:39:16;;;;;;;3.80;1.55;;;;;;;;;;5068578;28;20126;-80
2022/11/21 06:41:42;;;;;;;1.65;1.50;;;;;;;;;;5077277;28;20110;-80
2022/11/21 06:44:07;;;;;;;4.05;2.05;;;;;;;;;;5082158;28;20023;-83
2022/11/21 06:47:11;;;;;;;2.70;2.20;;;;;;;;;;5060750;28;20098;-80
2022/11/21 06:49:37;;;;;;;2.08;1.65;;;;;;;;;;5190433;22;20119;-80
2022/11/21 06:52:03;;;;;;;2.50;2.00;;;;;;;;;;5076641;28;20066;-80
2022/11/21 06:54:28;;;;;;;4.55;2.25;;;;;;;;;;5083466;28;20023;-82
2022/11/21 06:56:54;;;;;;;4.18;2.20;;;;;;;;;;5057776;28;20182;-81
2022/11/21 06:59:20;;;;;;;3.00;1.95;;;;;;;;;;5059583;28;20139;-79
2022/11/21 07:01:45;;;;;;;2.45;1.50;;;;;;;;;;5083303;28;20032;-77
2022/11/21 07:04:11;;;;;;;2.60;1.70;;;;;;;;;;5064586;28;20032;-79
2022/11/21 07:06:37;;;;;;;3.88;2.50;;;;;;;;;;5091820;28;20032;-81
2022/11/21 07:09:02;;;;;;;2.95;2.08;;;;;;;;;;5088853;28;20040;-79
2022/11/21 07:11:28;;;;;;;3.10;2.03;;;;;;;;;;5063881;28;20518;-79
2022/11/21 07:13:54;;;;;;;3.08;2.20;;;;;;;;;;5091310;28;20028;-81
2022/11/21 07:16:19;;;;;;;3.78;1.80;;;;;;;;;;5066093;28;20036;-78
2022/11/21 07:18:45;;;;;;;2.95;2.38;;;;;;;;;;5071891;28;20623;-80
2022/11/21 07:21:11;;;;;;;3.70;1.95;;;;;;;;;;5079029;28;20032;-80
2022/11/21 07:23:36;;;;;;;3.35;2.40;;;;;;;;;;5085208;28;20043;-81
2022/11/21 07:26:03;;;;;;;5.45;2.50;;;;;;;;;;5071033;28;20024;-80
2022/11/21 07:28:29;;;;;;;4.60;2.50;;;;;;;;;;5062715;28;20028;-80
2022/11/21 07:30:56;;;;;;;3.33;2.03;;;;;;;;;;5046937;28;20047;-81
2022/11/21 07:33:21;;;;;;;3.85;2.35;;;;;;;;;;5044108;28;20028;-78
2022/11/21 07:35:47;;;;;;;3.00;2.10;;;;;;;;;;5076696;28;20031;-80
2022/11/21 07:38:13;;;;;;;2.25;2.00;;;;;;;;;;5062687;28;20063;-81
2022/11/21 07:40:39;;;;;;;2.42;1.75;;;;;;;;;;5063707;28;20064;-83
2022/11/21 07:43:05;;;;;;;3.53;1.77;;;;;;;;;;5063858;28;20028;-81
2022/11/21 07:45:31;;;;;;;3.13;2.03;;;;;;;;;;5055235;28;20137;-80
2022/11/21 07:47:59;;;;;;;3.33;2.28;;;;;;;;;;5054574;28;20087;-81
2022/11/21 07:50:25;;;;;;;4.35;2.25;;;;;;;;;;5072372;28;20112;-81
2022/11/21 07:52:51;;;;;;;2.45;2.00;;;;;;;;;;5048913;28;20127;-79
2022/11/21 07:55:17;;;;;;;2.22;2.00;;;;;;;;;;5040221;28;20089;-80
2022/11/21 07:57:42;;;;;;;4.07;2.63;;;;;;;;;;5057058;28;20361;-80
2022/11/21 08:00:12;;;;;;;4.45;2.10;;;;;;;;;;5074510;28;20038;-80
2022/11/21 08:02:37;;;;;;;3.80;2.60;;;;;;;;;;5065826;28;20133;-80
2022/11/21 08:05:03;;;;;;;3.03;2.22;;;;;;;;;;5081042;28;20422;-79
2022/11/21 08:07:32;;;;;;;4.10;2.47;;;;;;;;;;5065658;28;20376;-81
2022/11/21 08:10:00;;;;;;;2.58;2.05;;;;;;;;;;5089268;28;20028;-83
2022/11/21 08:12:25;;;;;;;2.88;1.98;;;;;;;;;;5057279;28;20025;-79
2022/11/21 08:15:03;;;;;;;5.20;2.30;;;;;;;;;;5074358;28;20044;-82
2022/11/21 08:17:33;;;;;;;3.30;2.08;;;;;;;;;;5076753;28;20032;-81
2022/11/21 08:19:59;;;;;;;5.53;3.20;;;;;;;;;;5091700;28;20127;-77
2022/11/21 08:22:25;;;;;;;4.97;2.28;;;;;;;;;;5081223;28;20122;-75
2022/11/21 08:25:16;;;;;;;6.05;2.92;;;;;;;;;;5080844;28;20028;-80
2022/11/21 08:27:43;;;;;;;3.50;2.08;;;;;;;;;;5092537;28;20039;-78
2022/11/21 08:30:16;;;;;;;6.28;2.22;;;;;;;;;;5089739;28;20024;-81
2022/11/21 08:32:42;;;;;;;5.38;2.28;;;;;;;;;;5068197;28;20133;-77
2022/11/21 08:35:12;;;;;;;4.13;2.58;;;;;;;;;;5066044;28;20981;-78
2022/11/21 08:37:39;;;;;;;4.38;2.65;;;;;;;;;;5068984;28;20397;-80
2022/11/21 08:40:05;;;;;;;4.85;2.03;;;;;;;;;;5053703;28;20035;-84
2022/11/21 08:42:30;;;;;;;2.97;2.22;;;;;;;;;;5056371;28;20031;-84
2022/11/21 08:44:56;;;;;;;4.90;2.45;;;;;;;;;;5077038;28;20028;-88
2022/11/21 08:47:21;;;;;;;3.60;2.40;;;;;;;;;;5038950;28;20043;-87
2022/11/21 08:49:49;;;;;;;6.50;2.30;;;;;;;;;;5054398;28;20075;-87
2022/11/21 08:55:11;;;;;;;3.38;2.30;;;;;;;;;;5093421;28;20052;-86
2022/11/21 08:57:43;;;;;;;9.48;1.60;;;;;;;;;;5073823;28;20052;-82
2022/11/21 09:00:19;;;;;;;3.92;2.10;;;;;;;;;;5065835;28;20299;-83
2022/11/21 09:09:55;;;;;;;5.15;2.50;;;;;;;;;;4980713;28;20030;-85
2022/11/21 09:12:50;;;;;;;4.32;2.38;;;;;;;;;;4957597;28;20043;-89
2022/11/21 09:20:45;;;;;;;4.43;1.80;;;;;;;;;;5021058;28;20045;-82
2022/11/21 09:23:18;;;;;;;2.30;2.10;;;;;;;;;;5023546;28;20038;-83
2022/11/21 09:25:45;;;;;;;4.95;2.83;;;;;;;;;;5007353;28;20037;-78
2022/11/21 09:28:17;;;;;;;3.45;2.17;;;;;;;;;;5020604;28;20041;-76
2022/11/21 09:30:45;;;;;;;2.72;2.00;;;;;;;;;;5017087;28;20055;-78
2022/11/21 09:33:12;;;;;;;2.30;1.52;;;;;;;;;;5005027;28;20089;-77
2022/11/21 09:35:38;;;;;;;5.07;1.88;;;;;;;;;;5004025;28;20596;-77
2022/11/21 09:38:06;;;;;;;2.13;1.65;;;;;;;;;;5018092;28;20056;-77
2022/11/21 09:40:38;;;;;;;2.78;1.98;;;;;;;;;;5018633;28;20040;-78
2022/11/21 09:44:00;;;;;;;2.90;1.90;;;;;;;;;;5017530;28;20029;-78
2022/11/21 09:46:48;;;;;;;4.10;2.15;;;;;;;;;;4984116;28;20053;-79
2022/11/21 09:49:14;;;;;;;5.15;3.00;;;;;;;;;;4977794;28;20065;-78
2022/11/21 09:51:40;;;;;;;6.72;3.47;;;;;;;;;;4963026;28;20038;-76
2022/11/21 09:54:08;;;;;;;6.25;2.58;;;;;;;;;;5025196;28;20029;-77
2022/11/21 09:56:36;;;;;;;4.25;2.58;;;;;;;;;;5024574;28;20125;-76
2022/11/21 09:59:53;;;;;;;3.45;2.47;;;;;;;;;;4987040;28;20070;-76
2022/11/21 10:02:22;;;;;;;4.68;2.60;;;;;;;;;;5024474;28;20035;-78
2022/11/21 10:04:48;;;;;;;3.90;2.15;;;;;;;;;;4996826;28;20026;-77
2022/11/21 10:07:20;;;;;;;5.05;2.72;;;;;;;;;;5030971;28;20593;-80
2022/11/21 10:10:23;;;;;;;5.00;2.70;;;;;;;;;;5038865;28;20065;-77
2022/11/21 10:13:30;;;;;;;6.68;3.17;;;;;;;;;;5046460;28;20053;-78
2022/11/21 10:16:25;;;;;;;4.32;2.53;;;;;;;;;;5038673;28;20032;-77
2022/11/21 10:19:13;;;;;;;3.25;1.55;;;;;;;;;;5054578;28;20042;-78
2022/11/21 10:22:20;;;;;;;4.28;1.50;;;;;;;;;;5028311;28;20044;-78
2022/11/21 10:24:58;;;;;;;1.90;1.70;;;;;;;;;;5046420;28;20113;-76
2022/11/21 10:27:38;;;;;;;3.15;1.20;;;;;;;;;;5042096;28;20024;-79
2022/11/21 10:30:06;;;;;;;1.50;1.20;;;;;;;;;;5033430;28;20107;-75
2022/11/21 10:32:39;;;;;;;1.85;1.20;;;;;;;;;;5047632;28;20033;-75
2022/11/21 10:35:19;;;;;;;1.55;1.02;;;;;;;;;;5034829;28;20025;-76
2022/11/21 10:38:19;;;;;;;5.18;1.42;;;;;;;;;;5069336;28;20091;-78
2022/11/21 10:40:48;;;;;;;2.30;1.63;;;;;;;;;;5063289;28;20371;-77
2022/11/21 10:46:27;;;;;;;;;;;;;;;;;;5062353;28;20186;-76
2022/11/21 10:48:59;;;;;;;1.77;1.38;;;;;;;;;;5039768;28;20016;-76
2022/11/21 10:51:42;;;;;;;1.20;1.10;;;;;;;;;;5060315;28;20048;-78
2022/11/21 10:57:17;;;;;;;5.70;1.58;;;;;;;;;;5049760;28;20035;-76
2022/11/21 10:59:59;;;;;;;7.00;1.30;;;;;;;;;;5023383;28;20033;-76
2022/11/21 11:02:25;;;;;;;1.55;1.17;;;;;;;;;;5038395;28;20044;-76
2022/11/21 11:05:19;;;;;;;2.40;1.27;;;;;;;;;;5057894;28;20036;-78
2022/11/21 11:08:08;;;;;;;3.13;1.70;;;;;;;;;;5048847;28;20033;-77
2022/11/21 11:10:38;;;;;;;3.45;2.30;;;;;;;;;;5045831;28;20652;-78
2022/11/21 11:13:33;;;;;;;8.35;1.85;;;;;;;;;;5048331;28;20549;-80
2022/11/21 11:16:05;;;;;;;3.90;1.98;;;;;;;;;;5059055;28;20094;-77
2022/11/21 11:18:33;;;;;;;5.93;1.60;;;;;;;;;;5067259;28;20136;-81
2022/11/21 11:21:20;;;;;;;3.58;1.45;;;;;;;;;;5043012;28;20503;-77
2022/11/21 11:23:49;;;;;;;3.10;1.92;;;;;;;;;;5050831;28;20041;-78
2022/11/21 11:26:26;;;;;;;2.70;1.50;;;;;;;;;;5035444;28;20056;-79
2022/11/21 11:29:08;;;;;;;1.92;1.55;;;;;;;;;;5065371;28;20420;-78
2022/11/21 11:31:41;;;;;;;2.80;1.90;;;;;;;;;;5043648;28;20048;-77
2022/11/21 11:34:10;;;;;;;2.38;1.60;;;;;;;;;;5060591;28;20469;-77
2022/11/21 11:36:43;;;;;;;3.20;1.65;;;;;;;;;;5031930;28;20032;-80
2022/11/21 11:39:19;;;;;;;3.53;1.70;;;;;;;;;;5056458;28;20032;-80
2022/11/21 11:47:57;;;;;;;5.03;2.10;;;;;;;;;;5055977;28;20347;-82
2022/11/21 11:50:31;;;;;;;4.43;2.00;;;;;;;;;;5055612;28;20235;-82
2022/11/21 11:53:00;;;;;;;3.17;2.17;;;;;;;;;;5053640;28;20392;-80
2022/11/21 11:55:39;;;;;;;6.30;2.50;;;;;;;;;;5062470;28;20040;-80
2022/11/21 11:58:19;;;;;;;4.07;2.40;;;;;;;;;;5054783;28;20029;-81
2022/11/21 12:01:09;;;;;;;8.27;2.97;;;;;;;;;;5038004;28;20288;-79
2022/11/21 12:03:57;;;;;;;3.20;2.67;;;;;;;;;;5036429;28;20102;-81
2022/11/21 12:06:40;;;;;;;3.08;2.50;;;;;;;;;;5055332;28;20043;-81
2022/11/21 12:09:16;;;;;;;4.40;2.50;;;;;;;;;;5039812;28;20059;-80
2022/11/21 12:12:14;;;;;;;3.42;2.65;;;;;;;;;;5039805;28;20020;-81
2022/11/21 12:18:04;;;;;;;4.32;2.60;;;;;;;;;;5053510;28;20416;-81
2022/11/21 12:20:33;;;;;;;2.78;2.42;;;;;;;;;;5048872;28;20040;-81
2022/11/21 12:22:59;;;;;;;3.90;2.97;;;;;;;;;;5023204;28;20028;-80
2022/11/21 12:25:30;;;;;;;4.78;3.08;;;;;;;;;;5055479;28;20282;-81
2022/11/21 12:27:56;;;;;;;4.53;3.05;;;;;;;;;;5038394;28;20460;-80
2022/11/21 12:30:36;;;;;;;5.50;3.33;;;;;;;;;;5056334;28;20063;-79
2022/11/21 12:33:04;;;;;;;4.53;3.33;;;;;;;;;;5056038;28;20036;-79
2022/11/21 12:36:02;;;;;;;7.43;3.95;;;;;;;;;;5035225;28;20062;-80
2022/11/21 12:38:40;;;;;;;5.07;3.67;;;;;;;;;;5049351;28;20040;-79
2022/11/21 12:44:06;;;;;;;6.78;4.10;;;;;;;;;;5070623;28;20059;-78
2022/11/21 12:46:44;;;;;;;7.10;4.10;;;;;;;;;;5053248;28;20039;-79
2022/11/21 12:55:38;;;;;;;6.85;4.63;;;;;;;;;;5042936;28;20557;-80
2022/11/21 12:58:22;;;;;;;6.07;4.18;;;;;;;;;;5042103;28;20035;-80
2022/11/21 13:01:25;;;;;;;11.50;6.10;;;;;;;;;;5075040;28;20024;-80
2022/11/21 13:03:53;;;;;;;11.38;7.43;;;;;;;;;;5074599;28;20035;-80
2022/11/21 13:10:03;;;;;;;13.50;8.25;;;;;;;;;;4959804;28;20078;-89
2022/11/21 13:13:16;;;;;;;17.65;9.63;;;;;;;;;;4906568;29;20050;-81
2022/11/21 13:16:00;;;;;;;10.23;6.78;;;;;;;;;;5064074;28;20043;-80
2022/11/21 13:18:29;;;;;;;11.88;7.32;;;;;;;;;;5045743;28;20094;-81
2022/11/21 13:20:54;;;;;;;11.88;7.43;;;;;;;;;;5023845;28;20028;-80
2022/11/21 13:23:39;;;;;;;11.18;6.85;;;;;;;;;;5040077;28;20430;-80
2022/11/21 13:26:23;;;;;;;15.18;7.47;;;;;;;;;;5056092;28;20060;-78
2022/11/21 13:28:49;;;;;;;11.18;6.80;;;;;;;;;;5074469;28;20118;-79
2022/11/21 13:31:33;;;;;;;12.07;7.05;;;;;;;;;;5040317;28;20048;-80
2022/11/21 13:33:59;;;;;;;13.30;7.13;;;;;;;;;;5026944;28;20466;-81
2022/11/21 13:36:27;;;;;;;15.10;8.80;;;;;;;;;;5027277;28;20072;-79
2022/11/21 13:38:53;;;;;;;13.60;8.63;;;;;;;;;;5080882;28;20025;-79
2022/11/21 13:44:34;;;;;;;10.93;7.47;;;;;;;;;;5075589;28;20141;-78
2022/11/21 13:47:24;;;;;;;11.50;7.20;;;;;;;;;;5060605;28;20036;-79
2022/11/21 13:50:05;;;;;;;11.40;7.07;;;;;;;;;;5060558;28;20454;-79
2022/11/21 13:52:38;;;;;;;;;;;;;;;;;;5078216;28;20327;-79
2022/11/21 13:55:32;;;;;;;14.13;8.20;;;;;;;;;;5059712;28;20250;-79
2022/11/21 13:58:09;;;;;;;15.07;8.52;;;;;;;;;;5069672;28;20036;-80
2022/11/21 14:00:35;;;;;;;16.13;9.52;;;;;;;;;;5060007;28;20032;-79
2022/11/21 14:03:37;;;;;;;15.18;8.90;;;;;;;;;;5059542;28;20031;-79
2022/11/21 14:06:24;;;;;;;17.02;8.48;;;;;;;;;;5059008;28;20123;-78
2022/11/21 14:09:11;;;;;;;12.38;8.10;;;;;;;;;;5058828;28;20044;-80
2022/11/21 14:11:48;;;;;;;11.32;7.05;;;;;;;;;;5077300;28;20116;-81
2022/11/21 14:14:32;;;;;;;20.50;10.13;;;;;;;;;;5059406;28;20390;-80
2022/11/21 14:17:15;;;;;;;21.52;9.25;;;;;;;;;;5081950;28;20028;-80
2022/11/21 14:19:40;;;;;;;13.40;8.43;;;;;;;;;;5043867;28;20067;-80
2022/11/21 14:22:34;;;;;;;15.80;9.18;;;;;;;;;;5042058;28;20060;-78
2022/11/21 14:24:59;;;;;;;15.40;8.00;;;;;;;;;;5045384;28;20029;-79
2022/11/21 14:27:28;;;;;;;15.73;8.93;;;;;;;;;;5059448;28;20032;-78
2022/11/21 14:29:53;;;;;;;14.38;7.70;;;;;;;;;;5058792;28;20072;-79
2022/11/21 14:32:27;;;;;;;12.52;7.85;;;;;;;;;;5042704;28;20035;-78
2022/11/21 14:35:26;;;;;;;22.50;11.23;;;;;;;;;;5043047;28;20055;-79
2022/11/21 14:37:51;;;;;;;13.07;8.05;;;;;;;;;;5062610;28;20041;-79
2022/11/21 14:40:21;;;;;;;15.80;8.52;;;;;;;;;;5058938;28;20051;-79
2022/11/21 14:42:47;;;;;;;14.55;7.43;;;;;;;;;;5042110;28;20040;-81
2022/11/21 14:45:23;;;;;;;12.82;7.55;;;;;;;;;;5040815;28;20033;-79
2022/11/21 14:47:49;;;;;;;12.15;7.93;;;;;;;;;;5043585;28;20067;-80
2022/11/21 14:50:23;;;;;;;13.60;8.43;;;;;;;;;;5078505;28;20028;-79
2022/11/21 14:52:55;;;;;;;14.95;8.50;;;;;;;;;;5073654;28;20520;-80
2022/11/21 14:55:24;;;;;;;13.68;8.15;;;;;;;;;;5049979;28;20119;-80
2022/11/21 14:57:49;;;;;;;12.20;7.22;;;;;;;;;;5061965;28;20024;-80
2022/11/21 15:00:18;;;;;;;12.80;7.90;;;;;;;;;;5042122;28;20028;-79
2022/11/21 15:02:43;;;;;;;12.45;7.28;;;;;;;;;;5043274;28;20047;-79
2022/11/21 15:05:14;;;;;;;11.25;7.57;;;;;;;;;;5026756;28;20088;-78
2022/11/21 15:07:41;;;;;;;;;;;;;;;;;;5059569;28;20036;-80
2022/11/21 15:10:10;;;;;;;14.90;8.40;;;;;;;;;;5043993;28;19912;-80
2022/11/21 15:12:59;;;;;;;16.58;9.27;;;;;;;;;;5032789;28;20056;-79
2022/11/21 15:15:34;;;;;;;18.00;8.93;;;;;;;;;;5048983;28;20036;-80
2022/11/21 15:18:04;;;;;;;15.15;8.38;;;;;;;;;;5045147;28;20036;-81
2022/11/21 15:20:30;;;;;;;10.43;7.03;;;;;;;;;;5049699;28;20393;-79
2022/11/21 15:22:57;;;;;;;15.18;8.40;;;;;;;;;;5049302;28;20024;-79
2022/11/21 15:25:24;;;;;;;12.00;7.57;;;;;;;;;;5058506;28;20397;-80
2022/11/21 15:27:51;;;;;;;12.13;8.10;;;;;;;;;;5041124;28;20115;-80
2022/11/21 15:30:24;;;;;;;15.73;9.68;;;;;;;;;;5041441;28;20082;-80
2022/11/21 15:33:09;;;;;;;15.27;9.38;;;;;;;;;;5041514;28;20033;-81
2022/11/21 15:35:57;;;;;;;18.40;10.70;;;;;;;;;;5057334;28;20119;-80
2022/11/21 15:38:45;;;;;;;17.55;10.38;;;;;;;;;;5041549;28;20024;-81
2022/11/21 15:41:11;;;;;;;18.20;10.70;;;;;;;;;;5079536;28;20035;-81
2022/11/21 15:43:45;;;;;;;21.17;11.43;;;;;;;;;;5095437;28;20028;-80
2022/11/21 15:46:18;;;;;;;22.05;12.50;;;;;;;;;;5095282;28;20295;-81
2022/11/21 15:48:44;;;;;;;19.90;11.50;;;;;;;;;;5074107;28;20449;-80
2022/11/21 15:51:10;;;;;;;21.48;12.45;;;;;;;;;;5060681;28;20024;-81
2022/11/21 15:53:36;;;;;;;20.35;12.60;;;;;;;;;;5095872;28;20035;-80
2022/11/21 15:56:02;;;;;;;21.02;12.70;;;;;;;;;;5077004;28;20032;-81